آموزش

آموزش FMS A300 simcheck

آموزش مقدماتی اف ام اس ایرباس سیصد سری دویست را هم  اکنون میتوانید دانلود کنید در این آموزش شما شاید طرح ریزی پرواز تهران به شیراز خواهید بود

Instrument Flying Handbook

پی دی اف ارزشمند Instrument Flying Handbook را حتما مطالعه کنید برای دوستانی که شروع کردند به پرواز با هواپیماهای دیفالت بسیار مناسب است   تصاویری از این پی دی...

چند کلامی درباره ی ACARS

ACARS مخفف Aircraft Communication Addressing and Reporting System میباشد که اطلاعات مربوطه را بصورت Data Communication به ایستگاه زمینی ارسال میکند اطلاعاتی که توسط این سیستم بصورت اتوماتیک ارسال میشوند...

۱

آموزش افزایش فریم ریت

با سلام خدمت دوستان عزیز قصد داریم راه حلی را ارایه بدیم که از شر فریم پایین افزودنی ها راحت شوید 

4

حل مشکل FMC سیمچک A300 simcheck

بسیاری از دوستان پیام داده بودند و از مشکلشان با FMC سیمچک ما را با خبر کردند آنچه ما ازپیام ها دریافتیم این بود که دوستان در ویندوز 10 مشکلشان...

جزوه ایرودینامیک پرواز

ابتدا اجزای اصلی تشكیل دهنده یك هواپیما را بررسی میكنیم : 1)Fuselage : به بدنه اصلی هواپیما میگوییم كه تمام قسمتهای دیگر به آن متصل میشوند و فضایی است كه...

آموزش خواندن متار:

گزارشات هواشناسی شاملMETAR: هوای حاضر فرودگاهTAFO: پیش بینی برای شهر هاAREA FOR CAST : پیش بینی منطقه ایییک نمونه از METAR که مربوط به فرودگاه مهرآباد استOIII 122255Z 00000KT 2000 -SN BR FEW030CB FEW035 OVC09 M06/M06 Q1022 A3018 886.2خوب خواندن این گزارش به صورت زیر است